Time;durP1;ratioP1;P1;durP2;ratioP2;P2;SDS_P1;SDS_P2;PMS_P1;PMS_P2;Temp;Humidity;BMP_temperature;BMP_pressure;BME280_temperature;BME280_humidity;BME280_pressure;Samples;Min_cycle;Max_cycle;Signal;HPM_P1;HPM_P2
2023/01/24 00:01:21;;;;;;;16.85;8.50;;;;;;;2.72;82.86;99708.34;5051043;28;20040;-83
2023/01/24 00:03:47;;;;;;;12.57;7.03;;;;;;;2.71;82.66;99712.69;5052239;28;20436;-83
2023/01/24 00:06:13;;;;;;;11.82;6.13;;;;;;;2.62;82.47;99706.41;5052378;28;20052;-83
2023/01/24 00:08:39;;;;;;;16.00;8.27;;;;;;;2.55;83.18;99709.53;5052352;28;20377;-83
2023/01/24 00:11:09;;;;;;;14.43;7.80;;;;;;;2.68;83.56;99713.72;5049555;28;20071;-83
2023/01/24 00:13:36;;;;;;;13.98;7.93;;;;;;;2.74;82.78;99712.47;5052087;28;20036;-83
2023/01/24 00:16:16;;;;;;;11.98;7.40;;;;;;;2.94;83.28;99724.84;5052461;28;20120;-83
2023/01/24 00:18:42;;;;;;;15.00;7.28;;;;;;;2.94;82.50;99724.00;5047406;28;20028;-82
2023/01/24 00:21:15;;;;;;;12.77;6.70;;;;;;;3.00;82.56;99728.75;5047962;28;20029;-83
2023/01/24 00:23:43;;;;;;;12.38;7.03;;;;;;;3.00;82.01;99725.28;5051721;28;20055;-83
2023/01/24 00:26:10;;;;;;;15.98;7.45;;;;;;;2.95;81.72;99723.06;5051213;28;20057;-83
2023/01/24 00:28:35;;;;;;;14.20;7.72;;;;;;;3.10;82.14;99726.28;5049873;28;20033;-82
2023/01/24 00:31:03;;;;;;;14.23;7.65;;;;;;;3.20;82.65;99724.69;5046928;28;20423;-83
2023/01/24 00:33:28;;;;;;;11.20;6.93;;;;;;;3.17;81.30;99720.53;5051869;28;20041;-83
2023/01/24 00:35:54;;;;;;;14.60;7.97;;;;;;;3.13;81.44;99718.31;5051933;28;20040;-83
2023/01/24 00:38:21;;;;;;;13.23;7.07;;;;;;;3.16;80.76;99724.06;5047845;28;20480;-83
2023/01/24 00:40:47;;;;;;;14.45;7.60;;;;;;;3.10;81.12;99728.88;5029949;28;20047;-83
2023/01/24 00:43:13;;;;;;;13.30;6.72;;;;;;;3.19;82.21;99723.03;5051404;28;20090;-83
2023/01/24 00:45:39;;;;;;;15.73;8.02;;;;;;;3.22;81.68;99723.63;5051316;28;20492;-83
2023/01/24 00:48:08;;;;;;;12.02;6.88;;;;;;;3.29;81.25;99731.78;5049836;28;20029;-83
2023/01/24 00:50:34;;;;;;;14.38;7.03;;;;;;;3.08;80.29;99725.59;5051283;28;20098;-82
2023/01/24 00:53:00;;;;;;;12.35;7.50;;;;;;;3.11;80.96;99730.53;5051486;28;20505;-83
2023/01/24 00:55:26;;;;;;;13.32;6.97;;;;;;;3.04;80.32;99729.34;5050291;28;20127;-83
2023/01/24 00:57:52;;;;;;;13.05;7.20;;;;;;;3.07;81.27;99734.31;5051708;28;20128;-83
2023/01/24 01:00:19;;;;;;;13.27;7.53;;;;;;;3.14;81.57;99738.94;5046118;28;20090;-83
2023/01/24 01:02:44;;;;;;;12.57;7.00;;;;;;;3.13;81.10;99741.63;5051081;28;20048;-83
2023/01/24 01:05:10;;;;;;;14.05;7.22;;;;;;;3.14;80.43;99732.91;5050550;28;20033;-83
2023/01/24 01:07:35;;;;;;;10.68;6.70;;;;;;;3.11;80.41;99735.72;5047205;28;20186;-83
2023/01/24 01:10:02;;;;;;;13.40;7.45;;;;;;;3.23;81.78;99742.59;5049177;28;20060;-83
2023/01/24 01:12:28;;;;;;;14.15;7.70;;;;;;;3.34;82.17;99745.22;5051226;28;20785;-82
2023/01/24 01:14:53;;;;;;;11.90;6.78;;;;;;;3.40;82.05;99742.19;5051239;28;20116;-83
2023/01/24 01:17:19;;;;;;;12.35;6.80;;;;;;;3.40;81.52;99736.16;5032871;28;20076;-83
2023/01/24 01:19:44;;;;;;;12.07;6.70;;;;;;;3.46;81.32;99740.91;5048352;28;20660;-84
2023/01/24 01:22:10;;;;;;;13.10;6.85;;;;;;;3.42;79.99;99740.31;5050453;28;20044;-83
2023/01/24 01:24:36;;;;;;;12.80;7.10;;;;;;;3.36;79.65;99751.16;5049357;28;20040;-83
2023/01/24 01:27:02;;;;;;;11.10;6.28;;;;;;;3.34;80.65;99753.00;5046848;28;20517;-83
2023/01/24 01:29:27;;;;;;;12.63;7.38;;;;;;;3.33;80.58;99755.72;5050054;28;20491;-83
2023/01/24 01:31:53;;;;;;;12.55;7.00;;;;;;;3.31;81.42;99761.03;5051052;28;20033;-83
2023/01/24 01:34:18;;;;;;;11.75;6.25;;;;;;;3.31;80.52;99762.81;5049773;28;20036;-83
2023/01/24 01:36:44;;;;;;;10.35;6.20;;;;;;;3.15;80.87;99758.72;5050724;28;20041;-84
2023/01/24 01:39:10;;;;;;;10.13;6.15;;;;;;;3.23;81.21;99768.53;5050785;28;20112;-83
2023/01/24 01:41:35;;;;;;;12.98;6.93;;;;;;;3.21;80.81;99770.41;5049765;28;20043;-80
2023/01/24 01:44:42;;;;;;;13.35;6.60;;;;;;;3.29;80.86;99768.06;5050354;28;20481;-80
2023/01/24 01:47:27;;;;;;;11.27;6.28;;;;;;;3.30;80.79;99781.88;5039302;28;20082;-82
2023/01/24 01:50:07;;;;;;;11.73;6.97;;;;;;;3.20;80.68;99779.13;5032377;28;20037;-83
2023/01/24 01:52:38;;;;;;;11.80;5.90;;;;;;;3.10;81.10;99778.97;5050015;28;20488;-83
2023/01/24 01:55:16;;;;;;;10.90;6.78;;;;;;;3.01;81.73;99782.22;5049169;28;20091;-83
2023/01/24 01:57:43;;;;;;;10.95;6.18;;;;;;;3.10;82.05;99776.38;5049813;28;20040;-83
2023/01/24 02:00:27;;;;;;;11.07;6.07;;;;;;;3.17;81.46;99776.75;5049810;28;20498;-82
2023/01/24 02:05:47;;;;;;;10.13;5.80;;;;;;;2.89;81.92;99778.75;5047088;28;20110;-83
2023/01/24 02:08:20;;;;;;;12.55;6.10;;;;;;;2.85;82.39;99785.09;5049846;28;20240;-83
2023/01/24 02:13:31;;;;;;;11.88;5.50;;;;;;;2.96;82.01;99784.31;5042148;28;20036;-83
2023/01/24 02:16:03;;;;;;;10.43;6.53;;;;;;;3.03;82.28;99792.50;5044096;28;20116;-83
2023/01/24 02:18:36;;;;;;;10.25;5.88;;;;;;;3.04;82.18;99786.34;5044459;28;20408;-83
2023/01/24 02:21:06;;;;;;;10.38;5.50;;;;;;;3.07;82.32;99783.56;5046219;28;20090;-83
2023/01/24 02:23:55;;;;;;;12.07;6.10;;;;;;;3.08;82.38;99787.81;5046857;28;20067;-83
2023/01/24 02:26:27;;;;;;;12.23;6.00;;;;;;;3.04;82.64;99787.19;5042323;28;20562;-83
2023/01/24 02:29:03;;;;;;;11.25;6.72;;;;;;;3.09;82.86;99790.28;5048110;28;20052;-83
2023/01/24 02:31:29;;;;;;;10.35;5.45;;;;;;;2.97;82.43;99798.09;5049960;28;20032;-83
2023/01/24 02:33:55;;;;;;;10.20;6.15;;;;;;;2.76;82.74;99780.56;5048231;28;20037;-83
2023/01/24 02:36:40;;;;;;;9.07;5.80;;;;;;;2.94;82.52;99802.59;5045159;28;20821;-83
2023/01/24 02:39:18;;;;;;;10.45;5.80;;;;;;;2.88;82.42;99803.03;5044037;28;20464;-82
2023/01/24 02:41:55;;;;;;;11.15;5.82;;;;;;;2.84;82.87;99795.56;5045195;28;20049;-84
2023/01/24 02:44:37;;;;;;;9.65;5.72;;;;;;;2.84;82.84;99792.97;5045087;28;20111;-83
2023/01/24 02:47:03;;;;;;;9.90;5.07;;;;;;;2.83;82.65;99796.50;5045697;28;20048;-83
2023/01/24 02:49:29;;;;;;;8.50;5.55;;;;;;;2.87;82.75;99801.34;5050347;28;20040;-83
2023/01/24 02:54:39;;;;;;;10.23;5.88;;;;;;;2.92;82.49;99801.84;5046353;28;20045;-83
2023/01/24 02:59:49;;;;;;;10.98;5.65;;;;;;;2.74;82.88;99782.44;5048089;28;20056;-83
2023/01/24 03:02:14;;;;;;;11.75;6.38;;;;;;;2.75;83.07;99796.19;5048938;28;20064;-83
2023/01/24 03:04:40;;;;;;;9.73;5.80;;;;;;;2.81;83.13;99786.22;5049207;28;20473;-83
2023/01/24 03:07:05;;;;;;;10.35;5.97;;;;;;;2.75;83.12;99781.47;5045983;28;20068;-83
2023/01/24 03:09:38;;;;;;;11.05;6.18;;;;;;;2.83;83.58;99774.00;5049757;28;20029;-83
2023/01/24 03:36:53;;;;;;;10.73;5.47;;;;;;;3.08;82.66;99798.16;5049942;28;20500;-83
2023/01/24 03:42:03;;;;;;;8.80;5.13;;;;;;;3.04;81.37;99792.38;5053239;28;20143;-83
2023/01/24 03:44:29;;;;;;;8.57;5.53;;;;;;;3.03;81.44;99795.06;5050227;28;20065;-83
2023/01/24 03:46:54;;;;;;;9.15;5.60;;;;;;;2.94;81.54;99800.00;5052199;28;20063;-83
2023/01/24 03:54:48;;;;;;;8.48;5.35;;;;;;;3.15;81.80;99796.78;5050629;28;20048;-83
2023/01/24 03:57:13;;;;;;;9.30;5.10;;;;;;;3.14;81.38;99795.13;5034854;28;20036;-83
2023/01/24 03:59:39;;;;;;;9.45;5.13;;;;;;;3.04;81.48;99796.72;5052709;28;20410;-83
2023/01/24 04:02:04;;;;;;;8.88;5.15;;;;;;;3.16;81.86;99790.66;5051933;28;20093;-83
2023/01/24 04:05:12;;;;;;;10.05;6.03;;;;;;;3.18;81.42;99788.81;5052092;28;20045;-83
2023/01/24 04:07:16;;;;;;;8.70;4.97;;;;;;;3.18;81.07;99784.44;5046007;28;20021;-83
2023/01/24 04:09:41;;;;;;;7.57;4.90;;;;;;;3.23;81.00;99786.69;5052530;28;20033;-83
2023/01/24 04:12:06;;;;;;;8.40;5.13;;;;;;;3.14;80.78;99787.34;5049432;28;20033;-83
2023/01/24 04:14:32;;;;;;;8.55;5.15;;;;;;;3.13;80.53;99786.53;5048327;28;20041;-83
2023/01/24 04:16:57;;;;;;;9.15;5.18;;;;;;;3.07;80.97;99781.78;5043994;28;20104;-83
2023/01/24 04:19:23;;;;;;;7.18;4.75;;;;;;;3.08;81.02;99787.81;5047683;28;20090;-83
2023/01/24 04:21:48;;;;;;;7.45;4.90;;;;;;;3.11;80.97;99787.56;5050592;28;20034;-83
2023/01/24 04:24:14;;;;;;;8.68;5.28;;;;;;;3.22;81.14;99777.25;5048358;28;20048;-83
2023/01/24 04:26:39;;;;;;;10.43;5.25;;;;;;;3.28;81.02;99776.81;5050900;28;20079;-83
2023/01/24 04:29:05;;;;;;;7.30;4.45;;;;;;;3.22;80.13;99770.28;5051929;28;20064;-83
2023/01/24 04:31:30;;;;;;;8.43;5.07;;;;;;;3.24;80.29;99775.41;5052024;28;20037;-83
2023/01/24 04:33:56;;;;;;;9.50;5.00;;;;;;;3.15;80.53;99768.28;5050652;28;20037;-83
2023/01/24 04:36:21;;;;;;;9.38;5.07;;;;;;;3.25;80.61;99778.81;5050871;28;20041;-83
2023/01/24 04:38:47;;;;;;;9.57;5.38;;;;;;;3.17;80.11;99767.22;5050890;28;20037;-83
2023/01/24 04:41:13;;;;;;;7.93;5.25;;;;;;;3.09;80.56;99766.94;5051304;28;20037;-83
2023/01/24 04:43:40;;;;;;;7.47;4.35;;;;;;;3.09;80.89;99768.72;5043794;28;20072;-83
2023/01/24 04:46:06;;;;;;;8.07;4.68;;;;;;;3.14;81.27;99777.00;5049875;28;20056;-82
2023/01/24 04:48:32;;;;;;;6.88;4.30;;;;;;;3.05;80.77;99768.09;5051980;28;20043;-83
2023/01/24 04:50:59;;;;;;;8.18;5.07;;;;;;;3.11;81.71;99762.47;5051156;28;20032;-82
2023/01/24 04:53:26;;;;;;;9.48;4.40;;;;;;;3.20;80.69;99761.00;5050769;28;20040;-83
2023/01/24 04:55:51;;;;;;;8.88;4.97;;;;;;;3.18;80.57;99771.47;5047651;28;20779;-83
2023/01/24 04:58:16;;;;;;;8.75;4.47;;;;;;;3.15;80.13;99773.44;5051122;28;20086;-83
2023/01/24 05:00:42;;;;;;;8.38;5.05;;;;;;;3.18;80.36;99768.06;5050458;28;20036;-83
2023/01/24 05:03:08;;;;;;;8.68;5.20;;;;;;;3.10;80.45;99776.38;5051443;28;20380;-83
2023/01/24 05:05:33;;;;;;;8.73;5.13;;;;;;;3.04;80.63;99773.41;5050750;28;20037;-83
2023/01/24 05:07:59;;;;;;;7.15;5.00;;;;;;;3.02;80.74;99762.31;5051073;28;20036;-83
2023/01/24 05:10:24;;;;;;;8.02;5.05;;;;;;;3.11;80.82;99772.00;5050550;28;20089;-83
2023/01/24 05:12:50;;;;;;;8.02;5.07;;;;;;;3.18;80.95;99781.03;5047560;28;20025;-83
2023/01/24 05:15:17;;;;;;;6.82;4.10;;;;;;;3.21;80.55;99778.19;5050867;28;20040;-83
2023/01/24 05:17:44;;;;;;;9.20;4.63;;;;;;;3.15;79.78;99787.25;5050750;28;20037;-83
2023/01/24 05:20:10;;;;;;;9.77;5.22;;;;;;;3.18;80.80;99784.44;5046208;28;20056;-83
2023/01/24 05:22:36;;;;;;;5.88;4.20;;;;;;;3.25;80.35;99787.41;5048635;28;20051;-83
2023/01/24 05:25:01;;;;;;;6.93;4.50;;;;;;;3.31;80.26;99786.13;5033212;28;20036;-83
2023/01/24 05:27:27;;;;;;;7.35;4.32;;;;;;;3.29;80.30;99786.22;5050662;28;20098;-83
2023/01/24 05:29:52;;;;;;;7.90;3.83;;;;;;;3.31;79.42;99784.38;5050267;28;20041;-83
2023/01/24 05:32:18;;;;;;;7.13;4.28;;;;;;;3.33;79.77;99787.66;5044819;28;20037;-83
2023/01/24 05:34:43;;;;;;;7.18;3.97;;;;;;;3.35;79.73;99787.56;5050265;28;20835;-83
2023/01/24 05:37:09;;;;;;;7.38;4.43;;;;;;;3.29;79.75;99782.81;5050078;28;20104;-83
2023/01/24 05:39:34;;;;;;;6.93;4.05;;;;;;;3.38;79.77;99798.53;5031917;28;20044;-83
2023/01/24 05:42:00;;;;;;;7.30;4.20;;;;;;;3.27;79.24;99795.06;5050647;28;20593;-83
2023/01/24 05:44:25;;;;;;;6.80;4.30;;;;;;;3.30;79.56;99798.28;5049015;28;20045;-83
2023/01/24 05:46:51;;;;;;;9.57;4.10;;;;;;;3.22;78.88;99798.81;5048950;28;20072;-83
2023/01/24 05:49:16;;;;;;;7.97;4.40;;;;;;;3.26;79.78;99802.03;5050229;28;20040;-83
2023/01/24 05:51:42;;;;;;;6.72;3.90;;;;;;;3.30;80.23;99808.66;5048899;28;20062;-83
2023/01/24 05:54:07;;;;;;;6.40;4.00;;;;;;;3.32;79.79;99805.94;5050423;28;20057;-83
2023/01/24 05:56:33;;;;;;;6.03;4.18;;;;;;;3.26;79.01;99801.19;5049926;28;20048;-83
2023/01/24 05:59:01;;;;;;;7.32;4.35;;;;;;;3.31;79.13;99805.13;5048547;28;20065;-82
2023/01/24 06:01:26;;;;;;;7.85;4.53;;;;;;;3.32;79.59;99808.53;5049206;28;20043;-83
2023/01/24 06:03:53;;;;;;;6.50;4.03;;;;;;;3.34;79.40;99817.84;5049772;28;20037;-83
2023/01/24 06:06:22;;;;;;;6.40;4.57;;;;;;;3.35;79.42;99811.72;5049889;28;20040;-83
2023/01/24 06:08:48;;;;;;;6.45;3.42;;;;;;;3.19;78.41;99806.84;5045833;28;20104;-83
2023/01/24 06:11:20;;;;;;;6.57;4.40;;;;;;;3.04;78.63;99802.75;5049363;28;20519;-83
2023/01/24 06:13:47;;;;;;;6.55;4.35;;;;;;;2.99;80.02;99815.19;5049376;28;20039;-83
2023/01/24 06:16:20;;;;;;;6.85;4.35;;;;;;;2.99;80.19;99814.38;5041419;28;20049;-83
2023/01/24 06:18:46;;;;;;;5.72;3.80;;;;;;;3.02;80.46;99817.59;5044356;28;20109;-83
2023/01/24 06:21:44;;;;;;;5.85;3.78;;;;;;;3.05;80.21;99819.94;5044544;28;20024;-83
2023/01/24 06:24:24;;;;;;;5.90;4.03;;;;;;;3.01;80.24;99822.88;5046168;28;20469;-83
2023/01/24 06:26:52;;;;;;;6.35;4.00;;;;;;;3.12;80.73;99830.69;5049047;28;20031;-83
2023/01/24 06:29:20;;;;;;;5.70;3.85;;;;;;;3.23;80.78;99835.94;5049459;28;20063;-83
2023/01/24 06:32:14;;;;;;;7.88;3.83;;;;;;;3.25;79.55;99830.66;5048559;28;20082;-83
2023/01/24 06:35:07;;;;;;;7.55;4.25;;;;;;;3.28;79.30;99839.03;5042541;28;20372;-83
2023/01/24 06:37:47;;;;;;;6.10;3.97;;;;;;;3.42;80.36;99838.88;5048403;28;20431;-82
2023/01/24 06:40:17;;;;;;;6.22;3.95;;;;;;;3.49;80.41;99832.31;5046574;28;20037;-83
2023/01/24 06:42:43;;;;;;;9.50;4.35;;;;;;;3.35;78.87;99829.88;5041960;28;20238;-83
2023/01/24 06:45:10;;;;;;;7.75;4.82;;;;;;;3.49;79.53;99845.28;5045032;28;20044;-83
2023/01/24 06:47:35;;;;;;;7.10;4.35;;;;;;;3.58;80.53;99853.31;5020407;28;20398;-83
2023/01/24 06:50:01;;;;;;;7.47;3.78;;;;;;;3.49;79.00;99847.06;5048952;28;20059;-83
2023/01/24 06:52:27;;;;;;;6.35;4.05;;;;;;;3.42;78.88;99841.47;5049188;28;20037;-83
2023/01/24 06:54:53;;;;;;;5.70;3.88;;;;;;;3.53;79.72;99853.66;5048896;28;20093;-83
2023/01/24 06:57:18;;;;;;;6.20;3.65;;;;;;;3.47;79.22;99846.31;5050012;28;20166;-83
2023/01/24 06:59:44;;;;;;;6.50;4.30;;;;;;;3.36;78.54;99854.03;5052846;28;20620;-83
2023/01/24 07:02:10;;;;;;;6.05;3.95;;;;;;;3.35;79.13;99852.38;5050000;28;20040;-83
2023/01/24 07:04:36;;;;;;;5.18;3.67;;;;;;;3.25;78.75;99841.88;5044964;28;20041;-83
2023/01/24 07:07:05;;;;;;;5.68;4.00;;;;;;;3.32;79.08;99853.44;5052773;28;20033;-83
2023/01/24 07:09:31;;;;;;;7.25;3.55;;;;;;;3.21;79.42;99846.44;5050041;28;20064;-83
2023/01/24 07:11:58;;;;;;;5.47;3.72;;;;;;;3.15;79.22;99852.06;5049526;28;20116;-83
2023/01/24 07:14:24;;;;;;;5.32;3.55;;;;;;;3.18;79.61;99856.22;5035020;28;20124;-83
2023/01/24 07:16:50;;;;;;;6.35;3.70;;;;;;;3.26;79.79;99861.66;5053265;28;20045;-83
2023/01/24 07:19:26;;;;;;;5.43;3.33;;;;;;;3.32;79.56;99853.44;5045349;28;20057;-83
2023/01/24 07:21:53;;;;;;;7.28;4.05;;;;;;;3.26;79.59;99858.25;5034736;28;20041;-83
2023/01/24 07:24:29;;;;;;;7.82;4.40;;;;;;;3.37;79.96;99871.28;5049435;28;20052;-83
2023/01/24 07:26:56;;;;;;;6.90;4.00;;;;;;;3.46;80.58;99868.00;5051886;28;20071;-83
2023/01/24 07:29:22;;;;;;;5.53;4.22;;;;;;;3.54;80.64;99876.09;5052018;28;20025;-82
2023/01/24 07:31:49;;;;;;;5.40;3.92;;;;;;;3.56;79.29;99876.78;5050992;28;20043;-83
2023/01/24 07:34:17;;;;;;;5.82;3.95;;;;;;;3.66;79.66;99871.78;5034342;28;20400;-83
2023/01/24 07:36:44;;;;;;;6.03;4.10;;;;;;;3.72;79.24;99876.50;5050404;28;20087;-83
2023/01/24 07:39:10;;;;;;;6.88;4.43;;;;;;;3.73;78.71;99871.19;5049329;28;20029;-83
2023/01/24 07:41:36;;;;;;;6.57;4.13;;;;;;;3.74;78.73;99883.22;5048043;28;20032;-83
2023/01/24 07:44:04;;;;;;;6.93;4.38;;;;;;;3.78;79.18;99878.66;5052664;28;20048;-84
2023/01/24 07:46:32;;;;;;;6.55;4.05;;;;;;;3.71;78.75;99887.81;5051732;28;20055;-83
2023/01/24 07:48:57;;;;;;;6.20;3.67;;;;;;;3.74;79.04;99885.00;5033281;28;20021;-83
2023/01/24 07:51:23;;;;;;;5.63;3.88;;;;;;;3.66;78.76;99885.56;5051605;28;20068;-83
2023/01/24 07:53:48;;;;;;;6.50;4.03;;;;;;;3.63;78.66;99893.56;5051508;28;20126;-83
2023/01/24 07:56:16;;;;;;;6.45;4.22;;;;;;;3.64;78.91;99895.22;5051740;28;20123;-83
2023/01/24 07:58:42;;;;;;;9.43;5.35;;;;;;;3.64;78.77;99889.19;5051560;28;20505;-83
2023/01/24 08:01:07;;;;;;;8.40;5.13;;;;;;;3.69;79.20;99893.13;5050974;28;20036;-83
2023/01/24 08:03:33;;;;;;;7.80;4.80;;;;;;;3.81;79.67;99906.97;5048405;28;20037;-84
2023/01/24 08:05:59;;;;;;;6.57;4.05;;;;;;;3.86;80.02;99904.88;5052045;28;20037;-83
2023/01/24 08:08:24;;;;;;;9.93;5.35;;;;;;;3.90;79.34;99903.72;5051896;28;20679;-83
2023/01/24 08:10:50;;;;;;;6.57;4.47;;;;;;;3.84;79.27;99900.72;5047735;28;20046;-83
2023/01/24 08:13:15;;;;;;;8.70;4.72;;;;;;;3.78;78.61;99906.34;5049121;28;20032;-83
2023/01/24 08:15:41;;;;;;;7.82;3.97;;;;;;;3.79;79.32;99913.22;5052095;28;20481;-83
2023/01/24 08:18:06;;;;;;;8.02;4.43;;;;;;;3.85;79.60;99916.19;5051823;28;20556;-83
2023/01/24 08:20:32;;;;;;;6.18;3.58;;;;;;;3.67;78.76;99909.75;5049634;28;20408;-84
2023/01/24 08:22:58;;;;;;;7.88;4.20;;;;;;;3.75;79.10;99912.59;5051411;28;20036;-83
2023/01/24 08:25:28;;;;;;;8.93;4.55;;;;;;;3.81;79.50;99917.34;5045085;28;20487;-83
2023/01/24 08:27:54;;;;;;;7.85;4.43;;;;;;;3.91;79.33;99920.94;5051867;28;20376;-83
2023/01/24 08:30:19;;;;;;;7.47;4.03;;;;;;;3.95;78.15;99926.72;5050990;28;20033;-83
2023/01/24 08:32:45;;;;;;;7.97;4.25;;;;;;;3.97;78.36;99920.47;5052055;28;20036;-83
2023/01/24 08:35:11;;;;;;;6.40;4.07;;;;;;;3.97;78.67;99924.84;5052188;28;20037;-83
2023/01/24 08:37:36;;;;;;;5.80;4.13;;;;;;;3.87;78.30;99927.28;5052197;28;20040;-83
2023/01/24 08:40:03;;;;;;;6.43;4.05;;;;;;;3.90;79.11;99932.25;5051580;28;20381;-83
2023/01/24 08:42:28;;;;;;;9.55;4.72;;;;;;;3.96;78.51;99931.00;5051982;28;20044;-83
2023/01/24 08:44:54;;;;;;;7.10;4.25;;;;;;;3.99;78.17;99934.16;5025824;28;20056;-83
2023/01/24 08:47:19;;;;;;;6.35;3.83;;;;;;;4.04;78.65;99923.44;5051300;28;20083;-83
2023/01/24 08:49:45;;;;;;;9.25;4.18;;;;;;;4.09;77.83;99936.09;5051802;28;20048;-83
2023/01/24 08:52:11;;;;;;;7.45;4.65;;;;;;;3.99;77.86;99936.75;5047732;28;20033;-83
2023/01/24 08:54:37;;;;;;;5.72;3.90;;;;;;;4.03;78.01;99933.00;5050853;28;20061;-83
2023/01/24 08:57:04;;;;;;;6.47;4.05;;;;;;;3.88;77.94;99928.94;5050501;28;20040;-82
2023/01/24 08:59:29;;;;;;;7.63;4.68;;;;;;;4.02;79.32;99941.75;5041267;28;20030;-82
2023/01/24 09:01:55;;;;;;;6.57;4.55;;;;;;;4.01;78.95;99939.25;5032707;28;20043;-83
2023/01/24 09:04:20;;;;;;;7.25;4.07;;;;;;;3.98;78.06;99942.91;5050522;28;20419;-83
2023/01/24 09:06:47;;;;;;;6.60;4.00;;;;;;;4.09;78.82;99955.09;5050874;28;20033;-83
2023/01/24 09:09:12;;;;;;;4.78;3.22;;;;;;;3.91;78.02;99952.09;5051562;28;20523;-83
2023/01/24 09:11:38;;;;;;;4.65;3.60;;;;;;;3.96;79.03;99952.59;5049928;28;20029;-83
2023/01/24 09:14:03;;;;;;;5.47;3.10;;;;;;;4.03;78.59;99943.41;5050667;28;20045;-84
2023/01/24 09:16:29;;;;;;;4.38;3.67;;;;;;;4.07;78.49;99945.75;5050030;28;20990;-83
2023/01/24 09:18:55;;;;;;;7.18;3.60;;;;;;;3.95;78.75;99948.31;5049831;28;20033;-83
2023/01/24 09:21:21;;;;;;;6.13;4.05;;;;;;;4.05;79.07;99948.47;5051258;28;20040;-83
2023/01/24 09:23:47;;;;;;;6.82;4.00;;;;;;;3.94;78.93;99944.06;5051079;28;20028;-83
2023/01/24 09:26:12;;;;;;;6.97;4.20;;;;;;;4.22;80.07;99957.63;5050663;28;20251;-83
2023/01/24 09:28:39;;;;;;;6.68;4.10;;;;;;;4.21;80.01;99945.59;5051143;28;20037;-83
2023/01/24 09:31:08;;;;;;;5.55;3.92;;;;;;;4.34;79.35;99955.88;5044138;28;20037;-83
2023/01/24 09:33:34;;;;;;;5.72;3.85;;;;;;;4.46;79.22;99957.56;5050512;28;20036;-83
2023/01/24 09:36:02;;;;;;;6.20;3.88;;;;;;;4.47;78.43;99962.63;5050812;28;20116;-83
2023/01/24 09:38:31;;;;;;;7.00;3.78;;;;;;;4.55;78.69;99957.69;5046942;28;20107;-83
2023/01/24 09:41:23;;;;;;;7.45;4.38;;;;;;;4.50;77.55;99966.78;5048813;28;20072;-83
2023/01/24 09:43:49;;;;;;;6.47;3.90;;;;;;;4.57;78.65;99953.22;5050286;28;20037;-83
2023/01/24 09:46:29;;;;;;;6.80;4.18;;;;;;;4.64;78.47;99961.38;5050718;28;20358;-83
2023/01/24 09:49:10;;;;;;;9.27;4.60;;;;;;;4.70;77.25;99957.47;5050317;28;20025;-83
2023/01/24 09:51:45;;;;;;;6.80;4.32;;;;;;;4.63;76.04;99951.09;5047054;28;20424;-83
2023/01/24 09:54:28;;;;;;;5.75;3.67;;;;;;;4.42;76.43;99958.72;5050771;28;20049;-83
2023/01/24 09:56:56;;;;;;;6.43;3.80;;;;;;;4.44;76.95;99949.91;5046112;28;20037;-83
2023/01/24 09:59:38;;;;;;;5.20;3.55;;;;;;;4.37;76.68;99955.63;5048209;28;20365;-83
2023/01/24 10:02:17;;;;;;;5.60;4.15;;;;;;;4.47;77.17;99956.63;5047192;28;20076;-83
2023/01/24 10:04:45;;;;;;;6.32;4.43;;;;;;;4.59;77.65;99954.88;5050464;28;20511;-83
2023/01/24 10:07:40;;;;;;;6.38;4.28;;;;;;;4.71;77.62;99959.13;5048565;28;20060;-83
2023/01/24 10:10:40;;;;;;;6.28;4.47;;;;;;;4.75;77.68;99945.78;5040391;28;20048;-83
2023/01/24 10:14:13;;;;;;;8.23;4.80;;;;;;;4.80;76.56;99950.66;5050400;28;20037;-83
2023/01/24 10:16:55;;;;;;;6.35;4.53;;;;;;;4.76;76.27;99946.63;4984744;28;20376;-83
2023/01/24 10:19:39;;;;;;;6.90;4.38;;;;;;;4.69;75.95;99948.03;4983224;28;20047;-82
2023/01/24 10:22:40;;;;;;;6.85;4.43;;;;;;;4.84;77.14;99944.25;5030607;28;20053;-83
2023/01/24 10:25:16;;;;;;;;;;;;;;;4.99;77.06;99953.47;5051829;28;20059;-83
2023/01/24 10:27:49;;;;;;;8.13;5.00;;;;;;;4.92;76.61;99951.44;5046226;28;19920;-83
2023/01/24 10:30:20;;;;;;;6.50;4.32;;;;;;;4.68;75.07;99944.63;5044774;28;20033;-83
2023/01/24 10:32:48;;;;;;;;;;;;;;;4.79;76.85;99943.75;5047872;28;20044;-82
2023/01/24 10:35:23;;;;;;;8.85;4.40;;;;;;;4.84;77.22;99944.25;5049996;28;20307;-82
2023/01/24 10:37:55;;;;;;;5.80;4.30;;;;;;;4.93;77.70;99938.34;5046657;28;20039;-83
2023/01/24 10:40:26;;;;;;;7.22;4.53;;;;;;;4.95;76.70;99948.63;5043010;28;20032;-83
2023/01/24 10:42:52;;;;;;;7.03;4.60;;;;;;;4.88;75.79;99945.69;5044061;28;20048;-83
2023/01/24 10:45:33;;;;;;;7.72;4.57;;;;;;;4.68;75.93;99939.41;5050147;28;20435;-83
2023/01/24 10:48:31;;;;;;;7.90;4.93;;;;;;;4.63;75.94;99945.91;5045781;28;20031;-82
2023/01/24 10:51:18;;;;;;;6.25;4.22;;;;;;;4.67;76.57;99936.91;5046656;28;20112;-82
2023/01/24 10:53:45;;;;;;;7.30;4.88;;;;;;;4.74;77.20;99943.31;5043595;28;20113;-82
2023/01/24 10:56:13;;;;;;;6.95;4.53;;;;;;;4.59;76.11;99934.06;5045469;28;20071;-82
2023/01/24 10:59:00;;;;;;;8.68;4.70;;;;;;;4.63;76.56;99935.50;5048728;28;20045;-83
2023/01/24 11:01:37;;;;;;;6.43;4.60;;;;;;;4.42;77.05;99925.78;5048406;28;20040;-82
2023/01/24 11:04:23;;;;;;;6.03;3.95;;;;;;;4.49;77.47;99929.56;5039798;28;20495;-83
2023/01/24 11:06:50;;;;;;;7.38;4.90;;;;;;;4.45;77.15;99930.75;5046492;28;20029;-83
2023/01/24 11:09:26;;;;;;;6.32;4.43;;;;;;;4.46;77.02;99924.63;5049388;28;20057;-83
2023/01/24 11:11:58;;;;;;;6.30;4.30;;;;;;;4.64;77.94;99926.75;5046445;28;20091;-83
2023/01/24 11:14:34;;;;;;;9.38;5.05;;;;;;;4.75;77.88;99926.78;5050113;28;20055;-83
2023/01/24 11:17:01;;;;;;;7.18;5.30;;;;;;;4.82;77.67;99918.38;5049773;28;20039;-82
2023/01/24 11:19:32;;;;;;;8.48;4.43;;;;;;;4.80;76.21;99914.25;5046651;28;20037;-82
2023/01/24 11:22:33;;;;;;;8.48;4.60;;;;;;;4.75;76.37;99912.00;5047205;28;20036;-83
2023/01/24 11:25:03;;;;;;;8.93;5.78;;;;;;;4.74;77.03;99912.13;5050207;28;20041;-82
2023/01/24 11:27:31;;;;;;;7.07;4.63;;;;;;;4.82;77.02;99914.94;5049450;28;20036;-83
2023/01/24 11:30:19;;;;;;;7.03;4.82;;;;;;;4.90;76.77;99906.56;5027462;28;20055;-82
2023/01/24 11:33:09;;;;;;;8.48;4.68;;;;;;;4.98;76.54;99912.00;5046770;28;20771;-83
2023/01/24 11:35:44;;;;;;;6.05;4.22;;;;;;;4.98;75.71;99905.03;5041988;28;20088;-83
2023/01/24 11:38:37;;;;;;;7.60;4.90;;;;;;;4.99;75.97;99901.47;5049089;28;20086;-84
2023/01/24 11:41:12;;;;;;;7.22;4.50;;;;;;;5.02;76.17;99888.22;5047701;28;20048;-83
2023/01/24 11:44:12;;;;;;;8.57;5.10;;;;;;;5.09;76.23;99888.56;5050153;28;20040;-83
2023/01/24 11:47:06;;;;;;;7.85;5.63;;;;;;;5.11;76.03;99884.09;5052420;28;20041;-83
2023/01/24 11:49:58;;;;;;;6.05;3.50;;;;;;;4.96;75.35;99885.28;5051484;28;20032;-83
2023/01/24 11:52:57;;;;;;;9.57;4.65;;;;;;;5.03;76.16;99887.25;5050944;28;20067;-83
2023/01/24 11:56:13;;;;;;;7.25;5.05;;;;;;;5.02;76.36;99883.00;5049924;28;20520;-83
2023/01/24 11:59:08;;;;;;;6.63;4.55;;;;;;;5.05;75.68;99881.97;5049622;28;20074;-83
2023/01/24 12:02:09;;;;;;;6.57;4.57;;;;;;;5.05;75.37;99872.38;5051139;28;20060;-83
2023/01/24 12:04:50;;;;;;;5.97;3.85;;;;;;;4.95;74.88;99879.25;5051865;28;20033;-83
2023/01/24 12:07:34;;;;;;;6.70;4.53;;;;;;;4.92;75.33;99874.31;5052364;28;20447;-83
2023/01/24 12:10:20;;;;;;;6.38;4.80;;;;;;;4.93;76.17;99885.53;5050046;28;20032;-83
2023/01/24 12:12:53;;;;;;;7.28;4.82;;;;;;;5.07;77.12;99883.47;5031740;28;20025;-83
2023/01/24 12:15:57;;;;;;;9.32;5.20;;;;;;;5.06;75.94;99887.03;5033695;28;20060;-82
2023/01/24 12:18:51;;;;;;;8.02;4.95;;;;;;;5.07;76.26;99878.28;5014930;28;20051;-82
2023/01/24 12:21:19;;;;;;;8.50;5.32;;;;;;;4.96;75.83;99877.47;5047821;28;20037;-83
2023/01/24 12:24:21;;;;;;;7.38;4.80;;;;;;;4.95;76.12;99879.25;5051686;28;20059;-83
2023/01/24 12:26:58;;;;;;;8.43;4.78;;;;;;;4.88;76.00;99867.69;5045702;28;20427;-82
2023/01/24 12:30:13;;;;;;;7.47;4.80;;;;;;;5.00;77.26;99877.13;5051344;28;20056;-83
2023/01/24 12:32:57;;;;;;;9.13;5.47;;;;;;;4.85;75.80;99870.50;5046326;28;20025;-83
2023/01/24 12:35:37;;;;;;;7.18;4.40;;;;;;;4.81;76.28;99872.53;5047402;28;20033;-83
2023/01/24 12:38:18;;;;;;;8.93;5.18;;;;;;;4.85;76.25;99878.31;5046620;28;20041;-83
2023/01/24 12:41:02;;;;;;;11.10;5.80;;;;;;;4.86;77.03;99882.59;5047395;28;20049;-83
2023/01/24 12:44:05;;;;;;;8.07;5.45;;;;;;;4.94;77.43;99877.59;5049013;28;20072;-83